Time;durP1;ratioP1;P1;durP2;ratioP2;P2;SDS_P1;SDS_P2;PMS_P1;PMS_P2;Temp;Humidity;BMP_temperature;BMP_pressure;BME280_temperature;BME280_humidity;BME280_pressure;Samples;Min_cycle;Max_cycle;Signal;HPM_P1;HPM_P2
2021/06/21 00:01:13;;;;;;;;;;;25.10;48.60;;;;;;1486633;39;19936;-68
2021/06/21 00:02:34;;;;;;;;;;;25.10;48.80;;;;;;1487480;39;19942;-67
2021/06/21 00:03:55;;;;;;;;;;;25.10;49.00;;;;;;1487385;39;19940;-67
2021/06/21 00:05:16;;;;;;;;;;;25.10;48.60;;;;;;1487896;39;19936;-67
2021/06/21 00:06:36;;;;;;;;;;;25.10;48.90;;;;;;1487952;40;19940;-67
2021/06/21 00:07:58;;;;;;;;;;;25.10;48.90;;;;;;1485884;40;19959;-67
2021/06/21 00:09:18;;;;;;;;;;;25.00;48.60;;;;;;1486838;40;19976;-67
2021/06/21 00:10:39;;;;;;;;;;;25.00;48.70;;;;;;1486274;40;19932;-67
2021/06/21 00:12:00;;;;;;;;;;;25.00;48.80;;;;;;1485740;40;20062;-67
2021/06/21 00:13:21;;;;;;;;;;;25.00;48.90;;;;;;1487543;40;19955;-67
2021/06/21 00:14:42;;;;;;;;;;;25.00;48.80;;;;;;1487823;40;19972;-68
2021/06/21 00:16:03;;;;;;;;;;;25.00;48.70;;;;;;1485680;40;19955;-67
2021/06/21 00:17:24;;;;;;;;;;;25.00;48.90;;;;;;1487374;40;20273;-67
2021/06/21 00:18:45;;;;;;;;;;;25.00;49.10;;;;;;1485647;40;19940;-67
2021/06/21 00:20:06;;;;;;;;;;;25.00;49.30;;;;;;1486850;40;19932;-67
2021/06/21 00:21:27;;;;;;;;;;;25.00;49.50;;;;;;1487032;39;19932;-67
2021/06/21 00:22:48;;;;;;;;;;;25.00;49.20;;;;;;1488593;39;19936;-67
2021/06/21 00:24:09;;;;;;;;;;;25.00;49.10;;;;;;1485643;40;19990;-68
2021/06/21 00:25:30;;;;;;;;;;;25.00;48.90;;;;;;1486882;40;20342;-67
2021/06/21 00:26:51;;;;;;;;;;;24.90;48.70;;;;;;1487008;40;20346;-67
2021/06/21 00:28:12;;;;;;;;;;;25.00;48.80;;;;;;1487303;40;19936;-68
2021/06/21 00:29:32;;;;;;;;;;;24.90;48.90;;;;;;1488142;40;19972;-68
2021/06/21 00:30:53;;;;;;;;;;;24.90;48.90;;;;;;1487390;40;19979;-68
2021/06/21 00:32:14;;;;;;;;;;;24.90;49.10;;;;;;1487346;40;19944;-68
2021/06/21 00:33:35;;;;;;;;;;;24.90;49.10;;;;;;1486654;40;19936;-68
2021/06/21 00:34:55;;;;;;;;;;;24.90;49.40;;;;;;1486835;40;19947;-68
2021/06/21 00:36:16;;;;;;;;;;;24.90;50.00;;;;;;1486726;40;19932;-68
2021/06/21 00:37:37;;;;;;;;;;;24.90;49.60;;;;;;1487463;40;19936;-68
2021/06/21 00:38:58;;;;;;;;;;;24.90;49.70;;;;;;1487550;40;19932;-68
2021/06/21 00:40:19;;;;;;;;;;;24.90;50.00;;;;;;1486573;39;19936;-68
2021/06/21 00:41:40;;;;;;;;;;;24.90;50.00;;;;;;1486403;39;19939;-68
2021/06/21 00:43:01;;;;;;;;;;;24.80;49.60;;;;;;1485599;40;19955;-68
2021/06/21 00:44:22;;;;;;;;;;;24.80;49.50;;;;;;1487697;40;19939;-68
2021/06/21 00:45:43;;;;;;;;;;;24.80;49.60;;;;;;1486073;40;20314;-67
2021/06/21 00:47:03;;;;;;;;;;;24.80;49.40;;;;;;1487177;40;19932;-67
2021/06/21 00:48:24;;;;;;;;;;;24.80;49.90;;;;;;1486736;40;19936;-67
2021/06/21 00:49:45;;;;;;;;;;;24.70;49.80;;;;;;1486717;40;19932;-67
2021/06/21 00:51:06;;;;;;;;;;;24.70;49.70;;;;;;1487462;39;19944;-67
2021/06/21 00:52:27;;;;;;;;;;;24.70;50.10;;;;;;1489567;39;19946;-67
2021/06/21 00:53:48;;;;;;;;;;;24.70;50.40;;;;;;1486866;39;20346;-67
2021/06/21 00:55:09;;;;;;;;;;;24.70;50.80;;;;;;1487708;39;20166;-68
2021/06/21 00:56:30;;;;;;;;;;;24.60;50.20;;;;;;1486478;40;19936;-67
2021/06/21 00:57:51;;;;;;;;;;;24.60;50.60;;;;;;1487457;40;19932;-67
2021/06/21 00:59:12;;;;;;;;;;;24.60;50.50;;;;;;1486281;40;19932;-67
2021/06/21 01:00:33;;;;;;;;;;;24.60;50.60;;;;;;1485684;40;19995;-67
2021/06/21 01:01:54;;;;;;;;;;;24.60;50.90;;;;;;1487187;40;19936;-67
2021/06/21 01:03:15;;;;;;;;;;;24.60;50.70;;;;;;1486265;40;20040;-67
2021/06/21 01:04:36;;;;;;;;;;;24.60;51.30;;;;;;1486610;40;20344;-67
2021/06/21 01:05:57;;;;;;;;;;;24.60;51.00;;;;;;1486565;40;19932;-67
2021/06/21 01:07:17;;;;;;;;;;;24.60;50.80;;;;;;1485913;40;19932;-67
2021/06/21 01:08:38;;;;;;;;;;;24.50;50.90;;;;;;1486022;40;19942;-67
2021/06/21 01:09:59;;;;;;;;;;;24.50;51.10;;;;;;1486044;40;20180;-67
2021/06/21 01:11:20;;;;;;;;;;;24.50;51.00;;;;;;1486297;40;19939;-67
2021/06/21 01:12:47;;;;;;;;;;;24.50;51.50;;;;;;1485185;39;19946;-67
2021/06/21 01:14:20;;;;;;;;;;;24.50;51.10;;;;;;1488414;39;20016;-67
2021/06/21 01:15:42;;;;;;;;;;;24.50;51.00;;;;;;1486043;40;19937;-67
2021/06/21 01:17:19;;;;;;;;;;;24.50;51.10;;;;;;1487883;40;19932;-68
2021/06/21 01:18:43;;;;;;;;;;;24.50;50.80;;;;;;1484777;40;19952;-67
2021/06/21 01:20:22;;;;;;;;;;;24.50;51.80;;;;;;1486169;40;19956;-67
2021/06/21 01:22:09;;;;;;;;;;;24.50;51.30;;;;;;1486500;40;19932;-67
2021/06/21 01:23:58;;;;;;;;;;;24.50;51.20;;;;;;1485648;40;19939;-67
2021/06/21 01:25:19;;;;;;;;;;;24.50;51.20;;;;;;1485200;40;19947;-67
2021/06/21 01:26:43;;;;;;;;;;;24.40;51.20;;;;;;1486955;40;19947;-67
2021/06/21 01:28:10;;;;;;;;;;;24.40;51.30;;;;;;1486503;40;19932;-67
2021/06/21 01:29:36;;;;;;;;;;;24.40;51.10;;;;;;1486647;40;19947;-67
2021/06/21 01:31:17;;;;;;;;;;;24.40;51.30;;;;;;1486975;40;20170;-67
2021/06/21 01:32:43;;;;;;;;;;;24.40;51.00;;;;;;1476267;40;19941;-67
2021/06/21 01:34:04;;;;;;;;;;;24.40;51.00;;;;;;1488352;39;20569;-67
2021/06/21 01:35:32;;;;;;;;;;;24.40;51.10;;;;;;1486253;39;20288;-67
2021/06/21 01:36:54;;;;;;;;;;;24.40;51.00;;;;;;1487132;40;19940;-67
2021/06/21 01:38:19;;;;;;;;;;;24.40;51.50;;;;;;1486145;40;19958;-67
2021/06/21 01:39:40;;;;;;;;;;;24.40;51.20;;;;;;1487684;40;19954;-67
2021/06/21 01:41:03;;;;;;;;;;;24.40;51.50;;;;;;1485341;40;19932;-67
2021/06/21 01:42:25;;;;;;;;;;;24.40;51.50;;;;;;1487879;40;19936;-67
2021/06/21 01:43:48;;;;;;;;;;;24.40;51.60;;;;;;1485643;40;20279;-67
2021/06/21 01:45:10;;;;;;;;;;;24.30;51.70;;;;;;1485097;40;20169;-67
2021/06/21 01:46:32;;;;;;;;;;;24.40;51.60;;;;;;1487887;40;19932;-67
2021/06/21 01:47:54;;;;;;;;;;;24.40;51.80;;;;;;1484820;40;19936;-67
2021/06/21 01:49:17;;;;;;;;;;;24.30;52.00;;;;;;1485629;40;19986;-67
2021/06/21 01:50:38;;;;;;;;;;;24.30;51.70;;;;;;1487430;40;19951;-67
2021/06/21 01:52:00;;;;;;;;;;;24.30;52.10;;;;;;1487448;39;20145;-67
2021/06/21 01:53:22;;;;;;;;;;;24.30;51.90;;;;;;1487887;39;19939;-67
2021/06/21 01:54:47;;;;;;;;;;;24.30;51.90;;;;;;1487212;40;19932;-67
2021/06/21 01:56:14;;;;;;;;;;;24.30;52.20;;;;;;1486306;40;19943;-67
2021/06/21 01:57:36;;;;;;;;;;;24.30;51.90;;;;;;1486432;40;19944;-67
2021/06/21 01:58:59;;;;;;;;;;;24.30;52.40;;;;;;1482700;40;20058;-67
2021/06/21 02:00:20;;;;;;;;;;;24.30;52.10;;;;;;1485807;40;19951;-67
2021/06/21 02:01:43;;;;;;;;;;;24.30;52.40;;;;;;1487288;40;19948;-67
2021/06/21 02:03:05;;;;;;;;;;;24.30;52.40;;;;;;1487630;40;20289;-67
2021/06/21 02:04:28;;;;;;;;;;;24.30;52.70;;;;;;1487127;40;20347;-67
2021/06/21 02:05:50;;;;;;;;;;;24.30;51.90;;;;;;1486596;40;19951;-67
2021/06/21 02:07:11;;;;;;;;;;;24.20;51.90;;;;;;1484711;40;20249;-67
2021/06/21 02:08:32;;;;;;;;;;;24.20;51.90;;;;;;1487561;40;20201;-67
2021/06/21 02:09:54;;;;;;;;;;;24.20;52.40;;;;;;1486119;40;20165;-67
2021/06/21 02:11:15;;;;;;;;;;;24.20;52.30;;;;;;1486147;39;19939;-67
2021/06/21 02:12:37;;;;;;;;;;;24.20;52.20;;;;;;1486786;39;20029;-67
2021/06/21 02:13:58;;;;;;;;;;;24.20;52.20;;;;;;1487329;39;20201;-68
2021/06/21 02:15:21;;;;;;;;;;;24.10;52.40;;;;;;1485945;40;19945;-67
2021/06/21 02:16:42;;;;;;;;;;;24.10;52.20;;;;;;1482860;40;19944;-67
2021/06/21 02:18:03;;;;;;;;;;;24.10;52.40;;;;;;1486248;40;19940;-68
2021/06/21 02:19:25;;;;;;;;;;;24.10;52.30;;;;;;1487623;40;19936;-67
2021/06/21 02:20:46;;;;;;;;;;;24.10;52.60;;;;;;1485743;40;19932;-67
2021/06/21 02:22:07;;;;;;;;;;;24.10;52.40;;;;;;1485903;40;19944;-67
2021/06/21 02:23:28;;;;;;;;;;;24.10;52.80;;;;;;1483260;40;19936;-67
2021/06/21 02:24:50;;;;;;;;;;;24.10;52.80;;;;;;1482105;40;19965;-67
2021/06/21 02:26:11;;;;;;;;;;;24.10;52.30;;;;;;1486490;40;19955;-67
2021/06/21 02:27:32;;;;;;;;;;;24.10;52.20;;;;;;1485595;40;19947;-67
2021/06/21 02:28:55;;;;;;;;;;;24.10;52.10;;;;;;1486051;40;19943;-67
2021/06/21 02:30:17;;;;;;;;;;;24.10;52.20;;;;;;1487495;39;19932;-67
2021/06/21 02:31:37;;;;;;;;;;;24.00;52.40;;;;;;1486900;40;19940;-67
2021/06/21 02:32:58;;;;;;;;;;;24.10;52.60;;;;;;1488710;39;20509;-67
2021/06/21 02:34:19;;;;;;;;;;;24.00;52.60;;;;;;1486208;40;19936;-67
2021/06/21 02:35:40;;;;;;;;;;;24.00;52.70;;;;;;1485091;40;19943;-69
2021/06/21 02:37:01;;;;;;;;;;;24.00;52.70;;;;;;1485620;40;19939;-67
2021/06/21 02:38:21;;;;;;;;;;;24.00;52.70;;;;;;1487652;39;20296;-67
2021/06/21 02:39:42;;;;;;;;;;;24.00;52.60;;;;;;1484489;40;19932;-67
2021/06/21 02:41:03;;;;;;;;;;;24.00;52.30;;;;;;1487609;40;19931;-67
2021/06/21 02:42:24;;;;;;;;;;;24.00;52.60;;;;;;1487461;40;19932;-67
2021/06/21 02:43:45;;;;;;;;;;;24.00;53.00;;;;;;1487747;40;19932;-67
2021/06/21 02:45:06;;;;;;;;;;;24.00;52.60;;;;;;1487179;40;19932;-67
2021/06/21 02:46:27;;;;;;;;;;;24.00;52.50;;;;;;1485148;40;19944;-67
2021/06/21 02:47:48;;;;;;;;;;;23.90;52.70;;;;;;1485643;40;19936;-67
2021/06/21 02:49:09;;;;;;;;;;;23.90;53.00;;;;;;1488085;40;19936;-68
2021/06/21 02:50:30;;;;;;;;;;;23.90;53.50;;;;;;1488306;40;19944;-67
2021/06/21 02:52:01;;;;;;;;;;;23.90;53.50;;;;;;1483670;40;19937;-69
2021/06/21 02:53:31;;;;;;;;;;;23.90;53.30;;;;;;1487454;39;19940;-67
2021/06/21 02:55:07;;;;;;;;;;;23.90;52.90;;;;;;1482498;40;19940;-67
2021/06/21 02:56:38;;;;;;;;;;;23.90;52.60;;;;;;1485886;40;19948;-67
2021/06/21 02:58:01;;;;;;;;;;;23.80;52.70;;;;;;1487339;40;19936;-67
2021/06/21 02:59:23;;;;;;;;;;;23.90;52.80;;;;;;1487515;40;19932;-67
2021/06/21 03:00:45;;;;;;;;;;;23.90;52.80;;;;;;1486445;40;20059;-67
2021/06/21 03:02:08;;;;;;;;;;;23.80;52.90;;;;;;1482494;40;20239;-67
2021/06/21 03:03:31;;;;;;;;;;;23.80;52.70;;;;;;1485107;40;19940;-67
2021/06/21 03:04:52;;;;;;;;;;;23.80;52.90;;;;;;1488121;40;19936;-67
2021/06/21 03:06:14;;;;;;;;;;;23.80;53.60;;;;;;1483130;40;19936;-67
2021/06/21 03:07:35;;;;;;;;;;;23.80;53.30;;;;;;1485004;40;19940;-68
2021/06/21 03:08:56;;;;;;;;;;;23.80;53.10;;;;;;1487241;40;19939;-67
2021/06/21 03:10:18;;;;;;;;;;;23.80;52.90;;;;;;1487996;40;20268;-67
2021/06/21 03:11:41;;;;;;;;;;;23.80;52.70;;;;;;1487629;40;19936;-67
2021/06/21 03:13:02;;;;;;;;;;;23.70;53.10;;;;;;1487878;40;19956;-67
2021/06/21 03:14:24;;;;;;;;;;;23.70;53.10;;;;;;1487194;39;19940;-67
2021/06/21 03:15:45;;;;;;;;;;;23.70;53.00;;;;;;1488455;39;20017;-67
2021/06/21 03:17:06;;;;;;;;;;;23.70;53.20;;;;;;1487799;40;20212;-67
2021/06/21 03:18:27;;;;;;;;;;;23.70;53.10;;;;;;1486378;40;19976;-67
2021/06/21 03:19:50;;;;;;;;;;;23.70;53.00;;;;;;1488113;40;19975;-67
2021/06/21 03:21:10;;;;;;;;;;;23.70;53.10;;;;;;1487474;40;20253;-67
2021/06/21 03:22:31;;;;;;;;;;;23.70;53.10;;;;;;1488119;40;19932;-67
2021/06/21 03:23:53;;;;;;;;;;;23.70;53.10;;;;;;1488335;40;19965;-67
2021/06/21 03:25:14;;;;;;;;;;;23.70;53.10;;;;;;1487504;40;19940;-67
2021/06/21 03:26:34;;;;;;;;;;;23.70;53.40;;;;;;1487239;40;20040;-67
2021/06/21 03:27:56;;;;;;;;;;;23.70;53.20;;;;;;1484186;40;20105;-67
2021/06/21 03:29:17;;;;;;;;;;;23.70;53.20;;;;;;1484601;40;20253;-68
2021/06/21 03:30:41;;;;;;;;;;;23.70;53.20;;;;;;1486083;40;19997;-67
2021/06/21 03:32:21;;;;;;;;;;;23.70;53.60;;;;;;1487932;40;19932;-67
2021/06/21 03:33:41;;;;;;;;;;;23.70;53.30;;;;;;1486417;39;19940;-67
2021/06/21 03:35:03;;;;;;;;;;;23.60;53.30;;;;;;1487929;39;19939;-68
2021/06/21 03:36:24;;;;;;;;;;;23.70;53.30;;;;;;1487033;40;19936;-67
2021/06/21 03:37:45;;;;;;;;;;;23.60;53.60;;;;;;1486577;40;19943;-67
2021/06/21 03:39:06;;;;;;;;;;;23.60;53.60;;;;;;1487374;40;19931;-67
2021/06/21 03:40:27;;;;;;;;;;;23.60;53.60;;;;;;1482581;40;20294;-67
2021/06/21 03:41:47;;;;;;;;;;;23.60;53.70;;;;;;1485662;40;19936;-67
2021/06/21 03:43:09;;;;;;;;;;;23.60;53.40;;;;;;1483341;40;20258;-67
2021/06/21 03:44:29;;;;;;;;;;;23.60;53.40;;;;;;1486511;40;19947;-67
2021/06/21 03:45:51;;;;;;;;;;;23.60;54.10;;;;;;1486929;40;20021;-67
2021/06/21 03:47:13;;;;;;;;;;;23.60;53.80;;;;;;1487493;40;19976;-67
2021/06/21 03:48:36;;;;;;;;;;;23.50;53.80;;;;;;1486717;40;19936;-67
2021/06/21 03:49:57;;;;;;;;;;;23.50;53.70;;;;;;1486962;40;19942;-67
2021/06/21 03:51:19;;;;;;;;;;;23.50;54.00;;;;;;1487445;39;19932;-67
2021/06/21 03:52:39;;;;;;;;;;;23.50;53.90;;;;;;1487162;39;19936;-68
2021/06/21 03:54:00;;;;;;;;;;;23.50;53.90;;;;;;1487126;40;19932;-67
2021/06/21 03:55:21;;;;;;;;;;;23.50;54.30;;;;;;1486152;40;19950;-67
2021/06/21 03:56:42;;;;;;;;;;;23.50;54.10;;;;;;1487376;40;19940;-67
2021/06/21 03:58:03;;;;;;;;;;;23.40;54.10;;;;;;1487462;40;19978;-69
2021/06/21 03:59:24;;;;;;;;;;;23.40;54.60;;;;;;1487133;39;20065;-68
2021/06/21 04:00:45;;;;;;;;;;;23.40;55.70;;;;;;1485358;40;19975;-67
2021/06/21 04:02:06;;;;;;;;;;;23.40;55.30;;;;;;1485995;40;20173;-67
2021/06/21 04:03:27;;;;;;;;;;;23.40;54.50;;;;;;1486155;40;19932;-67
2021/06/21 04:04:48;;;;;;;;;;;23.40;55.00;;;;;;1487096;40;19943;-67
2021/06/21 04:06:08;;;;;;;;;;;23.40;56.30;;;;;;1486985;40;19943;-67
2021/06/21 04:07:29;;;;;;;;;;;23.30;55.60;;;;;;1487325;40;20433;-67
2021/06/21 04:08:50;;;;;;;;;;;23.30;54.60;;;;;;1487237;40;20319;-67
2021/06/21 04:10:12;;;;;;;;;;;23.30;54.30;;;;;;1489773;39;19968;-67
2021/06/21 04:11:33;;;;;;;;;;;23.30;54.30;;;;;;1488397;39;19935;-67
2021/06/21 04:12:54;;;;;;;;;;;23.30;54.20;;;;;;1486589;40;20171;-67
2021/06/21 04:14:15;;;;;;;;;;;23.20;54.30;;;;;;1486606;40;19944;-67
2021/06/21 04:15:36;;;;;;;;;;;23.20;54.00;;;;;;1486447;40;19940;-67
2021/06/21 04:16:57;;;;;;;;;;;23.20;54.00;;;;;;1486496;40;19940;-67
2021/06/21 04:18:18;;;;;;;;;;;23.10;54.00;;;;;;1485900;40;19986;-67
2021/06/21 04:19:39;;;;;;;;;;;23.10;53.70;;;;;;1486165;40;19936;-67
2021/06/21 04:20:59;;;;;;;;;;;23.10;53.50;;;;;;1486823;40;20129;-67
2021/06/21 04:22:20;;;;;;;;;;;23.10;53.30;;;;;;1486743;40;19939;-67
2021/06/21 04:23:41;;;;;;;;;;;23.10;53.50;;;;;;1486387;40;19939;-67
2021/06/21 04:25:02;;;;;;;;;;;23.10;53.70;;;;;;1488200;40;19963;-67
2021/06/21 04:26:23;;;;;;;;;;;23.10;53.60;;;;;;1485462;40;19936;-67
2021/06/21 04:27:44;;;;;;;;;;;23.10;54.20;;;;;;1486406;40;20020;-67
2021/06/21 04:29:05;;;;;;;;;;;23.10;53.50;;;;;;1488235;40;19943;-67
2021/06/21 04:30:26;;;;;;;;;;;23.10;53.30;;;;;;1488115;40;19935;-67
2021/06/21 04:31:47;;;;;;;;;;;23.00;53.50;;;;;;1488484;39;19936;-67
2021/06/21 04:33:08;;;;;;;;;;;23.10;54.00;;;;;;1487131;39;19983;-67
2021/06/21 04:34:28;;;;;;;;;;;23.00;53.60;;;;;;1487312;39;19936;-67
2021/06/21 04:35:49;;;;;;;;;;;23.00;53.40;;;;;;1487801;40;19946;-67
2021/06/21 04:37:10;;;;;;;;;;;23.00;53.70;;;;;;1488303;40;19932;-67
2021/06/21 04:38:31;;;;;;;;;;;23.00;54.10;;;;;;1486006;40;20275;-67
2021/06/21 04:39:51;;;;;;;;;;;22.90;54.20;;;;;;1488206;40;19936;-67
2021/06/21 04:41:12;;;;;;;;;;;23.00;53.80;;;;;;1486613;40;20231;-67
2021/06/21 04:42:33;;;;;;;;;;;22.90;53.30;;;;;;1488143;40;19939;-67
2021/06/21 04:43:54;;;;;;;;;;;22.90;53.50;;;;;;1487753;40;19988;-67
2021/06/21 04:45:15;;;;;;;;;;;22.90;53.50;;;;;;1487684;40;19936;-67
2021/06/21 04:46:35;;;;;;;;;;;22.80;53.40;;;;;;1487652;40;19942;-67
2021/06/21 04:47:56;;;;;;;;;;;22.80;53.50;;;;;;1488437;40;19944;-67
2021/06/21 04:49:17;;;;;;;;;;;22.80;53.50;;;;;;1487868;40;20040;-67
2021/06/21 04:50:39;;;;;;;;;;;22.80;53.40;;;;;;1486470;40;19932;-67
2021/06/21 04:52:00;;;;;;;;;;;22.80;53.50;;;;;;1489178;39;19939;-67
2021/06/21 04:53:22;;;;;;;;;;;22.80;53.60;;;;;;1490928;39;19947;-67
2021/06/21 04:54:43;;;;;;;;;;;22.70;53.70;;;;;;1487707;40;19935;-67
2021/06/21 04:56:04;;;;;;;;;;;22.70;53.40;;;;;;1487614;40;19936;-67
2021/06/21 04:57:24;;;;;;;;;;;22.70;53.90;;;;;;1487408;40;19940;-68
2021/06/21 04:58:45;;;;;;;;;;;22.70;53.70;;;;;;1483568;40;19944;-67
2021/06/21 05:00:07;;;;;;;;;;;22.70;53.80;;;;;;1484539;40;19969;-67
2021/06/21 05:01:28;;;;;;;;;;;22.70;53.60;;;;;;1485742;40;19932;-67
2021/06/21 05:02:50;;;;;;;;;;;22.70;53.30;;;;;;1487552;40;19947;-68
2021/06/21 05:04:10;;;;;;;;;;;22.70;53.30;;;;;;1486987;40;19942;-68
2021/06/21 05:05:31;;;;;;;;;;;22.70;53.80;;;;;;1488019;40;19939;-68
2021/06/21 05:06:52;;;;;;;;;;;22.60;54.10;;;;;;1486878;40;19937;-67
2021/06/21 05:08:13;;;;;;;;;;;22.60;53.70;;;;;;1488151;40;19939;-67
2021/06/21 05:09:34;;;;;;;;;;;22.60;53.60;;;;;;1487712;40;19946;-68
2021/06/21 05:10:57;;;;;;;;;;;22.60;53.80;;;;;;1488717;39;20233;-67
2021/06/21 05:12:17;;;;;;;;;;;22.50;53.80;;;;;;1488984;39;19936;-68
2021/06/21 05:13:38;;;;;;;;;;;22.60;54.00;;;;;;1487427;39;19937;-67
2021/06/21 05:14:59;;;;;;;;;;;22.50;53.60;;;;;;1488321;39;19954;-67
2021/06/21 05:16:20;;;;;;;;;;;22.50;53.60;;;;;;1487757;39;20183;-67
2021/06/21 05:17:41;;;;;;;;;;;22.50;53.50;;;;;;1484704;40;20029;-67
2021/06/21 05:19:01;;;;;;;;;;;22.50;53.70;;;;;;1486361;40;20154;-67
2021/06/21 05:20:22;;;;;;;;;;;22.50;53.50;;;;;;1486610;40;20253;-67
2021/06/21 05:21:43;;;;;;;;;;;22.50;53.40;;;;;;1485715;40;19966;-67
2021/06/21 05:23:04;;;;;;;;;;;22.50;53.70;;;;;;1487102;40;19932;-67
2021/06/21 05:24:25;;;;;;;;;;;22.50;53.60;;;;;;1485328;40;20032;-67
2021/06/21 05:25:45;;;;;;;;;;;22.50;53.70;;;;;;1485559;40;20065;-68
2021/06/21 05:27:06;;;;;;;;;;;22.40;53.80;;;;;;1487284;40;20136;-67
2021/06/21 05:28:27;;;;;;;;;;;22.40;53.90;;;;;;1485181;40;19947;-68
2021/06/21 05:29:48;;;;;;;;;;;22.40;54.00;;;;;;1488049;40;20179;-67
2021/06/21 05:31:09;;;;;;;;;;;22.40;54.40;;;;;;1486257;39;19932;-67
2021/06/21 05:32:30;;;;;;;;;;;22.40;54.40;;;;;;1487192;39;19947;-67
2021/06/21 05:33:50;;;;;;;;;;;22.30;54.00;;;;;;1486630;40;19936;-67
2021/06/21 05:35:11;;;;;;;;;;;22.30;54.20;;;;;;1486905;40;19943;-67
2021/06/21 05:36:32;;;;;;;;;;;22.30;54.70;;;;;;1486194;40;19948;-67
2021/06/21 05:37:53;;;;;;;;;;;22.30;54.10;;;;;;1487355;40;19936;-67
2021/06/21 05:39:14;;;;;;;;;;;22.30;53.90;;;;;;1487175;40;20150;-67
2021/06/21 05:40:35;;;;;;;;;;;22.30;54.20;;;;;;1486359;40;19985;-67
2021/06/21 05:41:56;;;;;;;;;;;22.30;54.90;;;;;;1486359;40;20341;-67
2021/06/21 05:43:17;;;;;;;;;;;22.30;55.50;;;;;;1486485;40;19939;-67
2021/06/21 05:44:38;;;;;;;;;;;22.20;55.00;;;;;;1485629;40;19936;-67
2021/06/21 05:45:58;;;;;;;;;;;22.20;54.70;;;;;;1485077;40;19944;-67
2021/06/21 05:47:19;;;;;;;;;;;22.20;54.30;;;;;;1486044;40;19948;-67
2021/06/21 05:48:40;;;;;;;;;;;22.20;54.60;;;;;;1486182;39;19960;-67
2021/06/21 05:50:01;;;;;;;;;;;22.20;54.50;;;;;;1486845;39;19973;-67
2021/06/21 05:51:21;;;;;;;;;;;22.10;54.80;;;;;;1487596;40;20184;-67
2021/06/21 05:52:42;;;;;;;;;;;22.10;54.70;;;;;;1484765;40;19942;-67
2021/06/21 05:54:03;;;;;;;;;;;22.10;54.70;;;;;;1485301;40;19964;-67
2021/06/21 05:55:24;;;;;;;;;;;22.10;54.90;;;;;;1485439;40;19951;-67
2021/06/21 05:56:45;;;;;;;;;;;22.10;54.80;;;;;;1485925;40;19956;-67
2021/06/21 05:58:06;;;;;;;;;;;22.10;54.30;;;;;;1484659;40;19944;-67
2021/06/21 05:59:26;;;;;;;;;;;22.10;54.80;;;;;;1482553;40;19951;-67
2021/06/21 06:00:47;;;;;;;;;;;22.00;54.90;;;;;;1480985;40;20314;-67
2021/06/21 06:02:08;;;;;;;;;;;22.10;54.60;;;;;;1484521;40;19942;-68
2021/06/21 06:03:29;;;;;;;;;;;22.10;54.50;;;;;;1487663;40;20046;-67
2021/06/21 06:04:50;;;;;;;;;;;22.00;54.60;;;;;;1485689;40;19936;-67
2021/06/21 06:06:11;;;;;;;;;;;22.00;54.70;;;;;;1486291;40;19970;-67
2021/06/21 06:07:33;;;;;;;;;;;22.00;54.60;;;;;;1486063;39;20260;-67
2021/06/21 06:08:54;;;;;;;;;;;22.00;54.60;;;;;;1487478;39;20368;-67
2021/06/21 06:10:14;;;;;;;;;;;22.00;55.10;;;;;;1481768;40;19947;-67
2021/06/21 06:11:36;;;;;;;;;;;22.00;55.20;;;;;;1486371;40;19940;-67
2021/06/21 06:12:57;;;;;;;;;;;22.00;56.30;;;;;;1485229;40;19947;-67
2021/06/21 06:14:18;;;;;;;;;;;21.90;55.90;;;;;;1486200;40;19936;-67
2021/06/21 06:15:38;;;;;;;;;;;21.90;55.60;;;;;;1485519;40;19947;-68
2021/06/21 06:16:59;;;;;;;;;;;21.90;55.60;;;;;;1487012;40;20257;-67
2021/06/21 06:18:20;;;;;;;;;;;21.90;55.10;;;;;;1486891;40;20252;-67
2021/06/21 06:19:41;;;;;;;;;;;21.90;55.10;;;;;;1485715;40;19968;-67
2021/06/21 06:21:02;;;;;;;;;;;21.90;55.10;;;;;;1484450;40;19947;-67
2021/06/21 06:22:23;;;;;;;;;;;21.90;55.30;;;;;;1485728;40;19967;-67
2021/06/21 06:23:44;;;;;;;;;;;21.90;54.80;;;;;;1488249;40;20152;-67
2021/06/21 06:25:05;;;;;;;;;;;21.90;54.80;;;;;;1487440;40;19932;-68
2021/06/21 06:26:26;;;;;;;;;;;21.80;56.00;;;;;;1487435;40;20048;-68
2021/06/21 06:27:46;;;;;;;;;;;21.80;55.90;;;;;;1485107;40;19940;-67
2021/06/21 06:29:07;;;;;;;;;;;21.80;55.70;;;;;;1487825;39;19936;-68
2021/06/21 06:30:29;;;;;;;;;;;21.80;55.60;;;;;;1487568;39;19936;-67
2021/06/21 06:31:49;;;;;;;;;;;21.80;55.60;;;;;;1487030;40;20478;-68
2021/06/21 06:33:10;;;;;;;;;;;21.80;55.00;;;;;;1486694;40;19943;-67
2021/06/21 06:34:31;;;;;;;;;;;21.80;54.60;;;;;;1485880;39;19990;-67
2021/06/21 06:35:52;;;;;;;;;;;21.70;55.30;;;;;;1485716;40;19943;-67
2021/06/21 06:37:13;;;;;;;;;;;21.70;55.80;;;;;;1486593;40;19939;-67
2021/06/21 06:38:34;;;;;;;;;;;21.80;55.30;;;;;;1483307;40;19956;-67
2021/06/21 06:39:55;;;;;;;;;;;21.70;55.30;;;;;;1485451;40;20033;-67
2021/06/21 06:41:16;;;;;;;;;;;21.70;55.20;;;;;;1486422;40;20260;-68
2021/06/21 06:42:37;;;;;;;;;;;21.70;55.10;;;;;;1487653;40;19943;-67
2021/06/21 06:43:57;;;;;;;;;;;21.70;54.60;;;;;;1487004;40;19940;-67
2021/06/21 06:45:18;;;;;;;;;;;21.70;54.50;;;;;;1485682;40;20181;-67
2021/06/21 06:46:39;;;;;;;;;;;21.60;54.30;;;;;;1486419;40;19933;-67
2021/06/21 06:48:00;;;;;;;;;;;21.60;54.50;;;;;;1487264;40;19939;-67
2021/06/21 06:49:21;;;;;;;;;;;21.60;54.40;;;;;;1480682;40;19936;-67
2021/06/21 06:50:42;;;;;;;;;;;21.60;54.50;;;;;;1485162;40;19938;-67
2021/06/21 06:52:03;;;;;;;;;;;21.60;54.50;;;;;;1486778;40;19943;-67
2021/06/21 06:53:27;;;;;;;;;;;21.60;54.50;;;;;;1485667;40;20527;-67
2021/06/21 06:58:06;;;;;;;;;;;21.50;54.30;;;;;;1487144;40;19947;-67
2021/06/21 06:59:30;;;;;;;;;;;21.50;54.50;;;;;;1485608;40;19982;-67
2021/06/21 07:00:51;;;;;;;;;;;21.50;54.20;;;;;;1486422;40;19940;-67
2021/06/21 07:02:14;;;;;;;;;;;21.50;54.60;;;;;;1487795;40;19972;-67
2021/06/21 07:03:34;;;;;;;;;;;21.50;54.60;;;;;;1487084;40;19947;-67
2021/06/21 07:04:55;;;;;;;;;;;21.50;54.50;;;;;;1486568;39;20433;-67
2021/06/21 07:06:17;;;;;;;;;;;21.40;54.50;;;;;;1486026;39;19940;-67
2021/06/21 07:07:38;;;;;;;;;;;21.40;54.50;;;;;;1486258;40;19939;-67
2021/06/21 07:08:59;;;;;;;;;;;21.40;54.30;;;;;;1481697;40;19940;-67
2021/06/21 07:10:19;;;;;;;;;;;21.40;54.20;;;;;;1484471;40;19942;-67
2021/06/21 07:11:40;;;;;;;;;;;21.40;54.40;;;;;;1486700;40;19932;-67
2021/06/21 07:13:01;;;;;;;;;;;21.40;54.20;;;;;;1485059;40;20125;-67
2021/06/21 07:14:22;;;;;;;;;;;21.40;54.30;;;;;;1486243;40;19998;-67
2021/06/21 07:15:43;;;;;;;;;;;21.30;54.30;;;;;;1487264;40;20233;-67
2021/06/21 07:17:04;;;;;;;;;;;21.30;54.40;;;;;;1487534;40;19943;-67
2021/06/21 07:18:24;;;;;;;;;;;21.30;54.50;;;;;;1486865;40;19935;-68
2021/06/21 07:19:45;;;;;;;;;;;21.30;54.80;;;;;;1485636;40;19975;-67
2021/06/21 07:21:06;;;;;;;;;;;21.30;54.60;;;;;;1482213;40;19968;-67
2021/06/21 07:22:27;;;;;;;;;;;21.30;54.50;;;;;;1484529;40;19948;-67
2021/06/21 07:23:48;;;;;;;;;;;21.30;54.60;;;;;;1486805;40;20400;-67
2021/06/21 07:25:09;;;;;;;;;;;21.30;54.80;;;;;;1485602;40;19936;-67
2021/06/21 07:26:30;;;;;;;;;;;21.30;55.00;;;;;;1485471;40;20267;-67
2021/06/21 07:27:50;;;;;;;;;;;21.30;55.20;;;;;;1486667;40;19972;-67
2021/06/21 07:29:11;;;;;;;;;;;21.30;55.90;;;;;;1486626;40;19932;-67
2021/06/21 07:30:32;;;;;;;;;;;21.20;55.40;;;;;;1485766;40;19932;-67
2021/06/21 07:31:53;;;;;;;;;;;21.20;55.20;;;;;;1487026;40;19932;-67
2021/06/21 07:33:14;;;;;;;;;;;21.20;55.30;;;;;;1486618;40;19968;-67
2021/06/21 07:34:36;;;;;;;;;;;21.20;55.30;;;;;;1483350;40;19980;-67
2021/06/21 07:35:57;;;;;;;;;;;21.20;55.60;;;;;;1486148;40;20350;-67
2021/06/21 07:37:18;;;;;;;;;;;21.20;55.80;;;;;;1487773;40;19948;-67
2021/06/21 07:38:40;;;;;;;;;;;21.20;55.80;;;;;;1487868;40;20271;-67
2021/06/21 07:40:01;;;;;;;;;;;21.10;55.50;;;;;;1488102;40;19938;-67
2021/06/21 07:41:22;;;;;;;;;;;21.10;55.40;;;;;;1485702;40;19932;-67
2021/06/21 07:42:43;;;;;;;;;;;21.10;55.40;;;;;;1488685;40;19943;-67
2021/06/21 07:44:04;;;;;;;;;;;21.00;55.30;;;;;;1488127;40;19936;-67
2021/06/21 07:45:25;;;;;;;;;;;21.00;55.60;;;;;;1485875;40;19936;-67
2021/06/21 07:46:47;;;;;;;;;;;21.00;56.20;;;;;;1488103;39;20267;-67
2021/06/21 07:48:09;;;;;;;;;;;21.00;55.40;;;;;;1488714;39;19944;-67
2021/06/21 07:49:30;;;;;;;;;;;20.90;55.50;;;;;;1488865;39;19932;-67
2021/06/21 07:50:51;;;;;;;;;;;21.00;55.90;;;;;;1487320;40;19936;-67
2021/06/21 07:52:12;;;;;;;;;;;20.90;55.60;;;;;;1488425;40;19962;-67
2021/06/21 07:53:34;;;;;;;;;;;20.90;55.80;;;;;;1487818;40;20029;-67
2021/06/21 07:54:59;;;;;;;;;;;20.90;56.30;;;;;;1482904;40;19939;-67
2021/06/21 07:56:20;;;;;;;;;;;20.80;56.10;;;;;;1484859;40;20467;-67
2021/06/21 07:57:41;;;;;;;;;;;20.80;56.10;;;;;;1488032;40;19936;-67
2021/06/21 07:59:02;;;;;;;;;;;20.80;56.50;;;;;;1487886;40;20025;-67